sensor_id;sensor_type;location;lat;lon;timestamp;pressure;altitude;pressure_sealevel;temperature;humidity
63739;BME280;68816;45.558;10.070;2023-04-09T00:01:30;100269.22;;;11.53;66.29
63739;BME280;68816;45.558;10.070;2023-04-09T00:03:56;100272.34;;;11.45;65.80
63739;BME280;68816;45.558;10.070;2023-04-09T00:06:21;100267.38;;;11.36;66.25
63739;BME280;68816;45.558;10.070;2023-04-09T00:08:46;100263.53;;;11.37;66.14
63739;BME280;68816;45.558;10.070;2023-04-09T00:11:12;100259.28;;;11.23;65.88
63739;BME280;68816;45.558;10.070;2023-04-09T00:13:37;100259.03;;;11.24;66.22
63739;BME280;68816;45.558;10.070;2023-04-09T00:16:03;100260.28;;;11.28;65.93
63739;BME280;68816;45.558;10.070;2023-04-09T00:18:28;100258.03;;;11.19;65.68
63739;BME280;68816;45.558;10.070;2023-04-09T00:20:54;100258.31;;;11.17;66.05
63739;BME280;68816;45.558;10.070;2023-04-09T00:23:20;100260.31;;;11.10;66.44
63739;BME280;68816;45.558;10.070;2023-04-09T00:25:45;100250.19;;;11.04;66.70
63739;BME280;68816;45.558;10.070;2023-04-09T00:28:11;100251.75;;;11.00;66.02
63739;BME280;68816;45.558;10.070;2023-04-09T00:30:36;100250.41;;;11.02;66.07
63739;BME280;68816;45.558;10.070;2023-04-09T00:33:02;100255.97;;;10.84;66.40
63739;BME280;68816;45.558;10.070;2023-04-09T00:35:27;100256.28;;;10.94;66.16
63739;BME280;68816;45.558;10.070;2023-04-09T00:37:53;100258.25;;;11.05;65.40
63739;BME280;68816;45.558;10.070;2023-04-09T00:40:18;100261.28;;;11.16;64.90
63739;BME280;68816;45.558;10.070;2023-04-09T00:42:43;100262.09;;;11.04;65.38
63739;BME280;68816;45.558;10.070;2023-04-09T00:45:09;100265.03;;;10.91;65.67
63739;BME280;68816;45.558;10.070;2023-04-09T00:47:35;100256.88;;;10.96;65.45
63739;BME280;68816;45.558;10.070;2023-04-09T00:50:01;100257.19;;;11.06;65.19
63739;BME280;68816;45.558;10.070;2023-04-09T00:52:27;100259.06;;;10.94;64.83
63739;BME280;68816;45.558;10.070;2023-04-09T00:54:55;100255.97;;;10.84;65.40
63739;BME280;68816;45.558;10.070;2023-04-09T00:57:23;100263.22;;;10.67;65.08
63739;BME280;68816;45.558;10.070;2023-04-09T00:59:48;100269.66;;;10.61;65.07
63739;BME280;68816;45.558;10.070;2023-04-09T01:02:14;100276.75;;;10.57;65.63
63739;BME280;68816;45.558;10.070;2023-04-09T01:04:41;100269.06;;;10.59;65.40
63739;BME280;68816;45.558;10.070;2023-04-09T01:13:27;100274.28;;;10.67;65.27
63739;BME280;68816;45.558;10.070;2023-04-09T01:15:56;100277.38;;;10.59;66.28
63739;BME280;68816;45.558;10.070;2023-04-09T01:21:12;100281.06;;;10.53;66.13
63739;BME280;68816;45.558;10.070;2023-04-09T01:29:04;100279.88;;;10.79;65.28
63739;BME280;68816;45.558;10.070;2023-04-09T01:31:35;100274.88;;;10.87;63.89
63739;BME280;68816;45.558;10.070;2023-04-09T01:34:02;100285.88;;;10.94;63.96
63739;BME280;68816;45.558;10.070;2023-04-09T01:36:30;100280.25;;;11.00;62.97
63739;BME280;68816;45.558;10.070;2023-04-09T01:38:56;100292.69;;;10.91;63.73
63739;BME280;68816;45.558;10.070;2023-04-09T01:41:25;100288.94;;;10.86;64.21
63739;BME280;68816;45.558;10.070;2023-04-09T01:43:52;100289.44;;;10.83;64.22
63739;BME280;68816;45.558;10.070;2023-04-09T01:46:18;100294.34;;;10.81;64.63
63739;BME280;68816;45.558;10.070;2023-04-09T01:48:45;100285.09;;;10.87;63.16
63739;BME280;68816;45.558;10.070;2023-04-09T01:51:12;100289.78;;;10.86;63.75
63739;BME280;68816;45.558;10.070;2023-04-09T01:53:39;100295.31;;;11.04;63.19
63739;BME280;68816;45.558;10.070;2023-04-09T01:56:05;100284.38;;;11.09;62.17
63739;BME280;68816;45.558;10.070;2023-04-09T01:58:32;100291.88;;;11.21;61.92
63739;BME280;68816;45.558;10.070;2023-04-09T02:01:22;100296.47;;;11.27;62.12
63739;BME280;68816;45.558;10.070;2023-04-09T02:04:02;100305.78;;;11.32;62.22
63739;BME280;68816;45.558;10.070;2023-04-09T02:06:47;100306.47;;;11.28;63.46
63739;BME280;68816;45.558;10.070;2023-04-09T02:09:19;100302.25;;;11.25;62.96
63739;BME280;68816;45.558;10.070;2023-04-09T02:11:46;100296.97;;;11.24;62.76
63739;BME280;68816;45.558;10.070;2023-04-09T02:14:14;100303.22;;;11.31;61.95
63739;BME280;68816;45.558;10.070;2023-04-09T02:16:40;100302.91;;;11.39;62.04
63739;BME280;68816;45.558;10.070;2023-04-09T02:19:06;100296.97;;;11.24;63.07
63739;BME280;68816;45.558;10.070;2023-04-09T02:21:31;100304.91;;;11.32;63.63
63739;BME280;68816;45.558;10.070;2023-04-09T02:23:57;100299.38;;;11.32;62.78
63739;BME280;68816;45.558;10.070;2023-04-09T02:26:23;100299.47;;;11.25;63.79
63739;BME280;68816;45.558;10.070;2023-04-09T02:28:49;100307.56;;;11.27;64.21
63739;BME280;68816;45.558;10.070;2023-04-09T02:31:15;100302.03;;;11.27;64.46
63739;BME280;68816;45.558;10.070;2023-04-09T02:33:40;100301.06;;;11.33;63.80
63739;BME280;68816;45.558;10.070;2023-04-09T02:36:10;100302.78;;;11.34;64.14
63739;BME280;68816;45.558;10.070;2023-04-09T02:38:35;100303.72;;;11.28;64.86
63739;BME280;68816;45.558;10.070;2023-04-09T02:41:01;100307.50;;;11.15;65.25
63739;BME280;68816;45.558;10.070;2023-04-09T02:43:26;100296.50;;;11.08;65.84
63739;BME280;68816;45.558;10.070;2023-04-09T02:45:51;100300.97;;;11.09;65.98
63739;BME280;68816;45.558;10.070;2023-04-09T02:48:17;100306.59;;;11.03;65.43
63739;BME280;68816;45.558;10.070;2023-04-09T02:50:42;100307.22;;;11.05;65.48
63739;BME280;68816;45.558;10.070;2023-04-09T02:53:08;100305.75;;;11.02;66.35
63739;BME280;68816;45.558;10.070;2023-04-09T02:55:33;100308.53;;;11.02;66.93
63739;BME280;68816;45.558;10.070;2023-04-09T02:57:58;100299.44;;;10.95;67.12
63739;BME280;68816;45.558;10.070;2023-04-09T03:00:24;100309.38;;;11.03;66.60
63739;BME280;68816;45.558;10.070;2023-04-09T03:02:50;100302.84;;;10.97;66.89
63739;BME280;68816;45.558;10.070;2023-04-09T03:05:15;100304.63;;;10.92;66.55
63739;BME280;68816;45.558;10.070;2023-04-09T03:07:40;100302.41;;;10.82;66.74
63739;BME280;68816;45.558;10.070;2023-04-09T03:10:06;100292.13;;;10.71;66.83
63739;BME280;68816;45.558;10.070;2023-04-09T03:12:32;100294.09;;;10.82;66.80
63739;BME280;68816;45.558;10.070;2023-04-09T03:14:57;100297.94;;;10.81;67.08
63739;BME280;68816;45.558;10.070;2023-04-09T03:17:23;100292.06;;;10.89;66.63
63739;BME280;68816;45.558;10.070;2023-04-09T03:19:52;100295.72;;;10.72;66.86
63739;BME280;68816;45.558;10.070;2023-04-09T03:22:17;100300.84;;;10.86;66.34
63739;BME280;68816;45.558;10.070;2023-04-09T03:24:43;100298.66;;;10.77;66.30
63739;BME280;68816;45.558;10.070;2023-04-09T03:27:09;100291.56;;;10.62;66.55
63739;BME280;68816;45.558;10.070;2023-04-09T03:29:34;100299.25;;;10.60;66.74
63739;BME280;68816;45.558;10.070;2023-04-09T03:32:00;100296.78;;;10.34;67.23
63739;BME280;68816;45.558;10.070;2023-04-09T03:34:25;100294.06;;;10.27;67.64
63739;BME280;68816;45.558;10.070;2023-04-09T03:36:51;100299.69;;;10.39;66.96
63739;BME280;68816;45.558;10.070;2023-04-09T03:39:16;100298.13;;;10.25;66.93
63739;BME280;68816;45.558;10.070;2023-04-09T03:41:41;100292.69;;;10.18;66.94
63739;BME280;68816;45.558;10.070;2023-04-09T03:44:07;100295.63;;;10.23;67.02
63739;BME280;68816;45.558;10.070;2023-04-09T03:46:32;100294.06;;;10.27;66.49
63739;BME280;68816;45.558;10.070;2023-04-09T03:48:58;100293.06;;;10.22;66.10
63739;BME280;68816;45.558;10.070;2023-04-09T03:51:23;100289.97;;;10.12;66.41
63739;BME280;68816;45.558;10.070;2023-04-09T03:53:49;100291.09;;;10.04;66.59
63739;BME280;68816;45.558;10.070;2023-04-09T03:56:14;100291.13;;;9.98;66.44
63739;BME280;68816;45.558;10.070;2023-04-09T03:58:40;100293.53;;;9.94;66.53
63739;BME280;68816;45.558;10.070;2023-04-09T04:01:05;100289.13;;;9.86;66.29
63739;BME280;68816;45.558;10.070;2023-04-09T04:03:31;100292.34;;;9.83;66.62
63739;BME280;68816;45.558;10.070;2023-04-09T04:06:00;100295.50;;;9.87;66.72
63739;BME280;68816;45.558;10.070;2023-04-09T04:08:26;100295.75;;;9.79;65.97
63739;BME280;68816;45.558;10.070;2023-04-09T04:10:52;100298.53;;;9.79;66.47
63739;BME280;68816;45.558;10.070;2023-04-09T04:13:17;100304.13;;;9.72;66.90
63739;BME280;68816;45.558;10.070;2023-04-09T04:15:43;100310.94;;;9.70;67.43
63739;BME280;68816;45.558;10.070;2023-04-09T04:18:09;100309.22;;;9.69;66.93
63739;BME280;68816;45.558;10.070;2023-04-09T04:20:36;100314.00;;;9.55;66.98
63739;BME280;68816;45.558;10.070;2023-04-09T04:23:03;100311.91;;;9.51;67.55
63739;BME280;68816;45.558;10.070;2023-04-09T04:25:29;100310.28;;;9.43;67.45
63739;BME280;68816;45.558;10.070;2023-04-09T04:27:55;100308.69;;;9.22;67.81
63739;BME280;68816;45.558;10.070;2023-04-09T04:30:21;100307.72;;;9.41;67.50
63739;BME280;68816;45.558;10.070;2023-04-09T04:32:47;100312.19;;;9.42;67.68
63739;BME280;68816;45.558;10.070;2023-04-09T04:35:12;100312.84;;;9.38;67.33
63739;BME280;68816;45.558;10.070;2023-04-09T04:37:38;100314.66;;;9.51;67.18
63739;BME280;68816;45.558;10.070;2023-04-09T04:40:05;100326.41;;;9.39;67.45
63739;BME280;68816;45.558;10.070;2023-04-09T04:42:31;100325.53;;;9.45;66.88
63739;BME280;68816;45.558;10.070;2023-04-09T04:44:57;100325.34;;;9.40;67.37
63739;BME280;68816;45.558;10.070;2023-04-09T04:47:22;100332.25;;;9.56;66.73
63739;BME280;68816;45.558;10.070;2023-04-09T04:49:48;100333.72;;;9.59;66.22
63739;BME280;68816;45.558;10.070;2023-04-09T04:52:13;100335.81;;;9.63;66.19
63739;BME280;68816;45.558;10.070;2023-04-09T04:54:39;100334.75;;;9.64;65.82
63739;BME280;68816;45.558;10.070;2023-04-09T04:57:04;100338.63;;;9.57;66.61
63739;BME280;68816;45.558;10.070;2023-04-09T04:59:30;100328.97;;;9.41;67.34
63739;BME280;68816;45.558;10.070;2023-04-09T05:01:55;100341.75;;;9.35;67.12
63739;BME280;68816;45.558;10.070;2023-04-09T05:04:21;100337.81;;;9.18;67.31
63739;BME280;68816;45.558;10.070;2023-04-09T05:06:46;100345.16;;;9.31;67.63
63739;BME280;68816;45.558;10.070;2023-04-09T05:09:12;100337.91;;;9.36;67.09
63739;BME280;68816;45.558;10.070;2023-04-09T05:11:37;100331.34;;;9.37;66.57
63739;BME280;68816;45.558;10.070;2023-04-09T05:14:02;100355.47;;;9.48;66.92
63739;BME280;68816;45.558;10.070;2023-04-09T05:16:30;100363.28;;;9.52;67.54
63739;BME280;68816;45.558;10.070;2023-04-09T05:18:55;100363.25;;;9.58;67.28
63739;BME280;68816;45.558;10.070;2023-04-09T05:21:21;100370.78;;;9.76;66.43
63739;BME280;68816;45.558;10.070;2023-04-09T05:23:46;100366.03;;;9.89;66.17
63739;BME280;68816;45.558;10.070;2023-04-09T05:26:12;100367.66;;;9.97;65.52
63739;BME280;68816;45.558;10.070;2023-04-09T05:28:37;100364.56;;;10.12;65.39
63739;BME280;68816;45.558;10.070;2023-04-09T05:31:03;100368.41;;;10.11;65.90
63739;BME280;68816;45.558;10.070;2023-04-09T05:33:28;100364.72;;;10.23;65.51
63739;BME280;68816;45.558;10.070;2023-04-09T05:35:54;100366.56;;;10.29;65.40
63739;BME280;68816;45.558;10.070;2023-04-09T05:38:19;100357.97;;;10.38;66.47
63739;BME280;68816;45.558;10.070;2023-04-09T05:40:45;100359.22;;;10.42;65.42
63739;BME280;68816;45.558;10.070;2023-04-09T05:43:10;100366.13;;;10.51;64.89
63739;BME280;68816;45.558;10.070;2023-04-09T05:45:36;100363.00;;;10.47;65.16
63739;BME280;68816;45.558;10.070;2023-04-09T05:48:02;100364.84;;;10.53;64.67
63739;BME280;68816;45.558;10.070;2023-04-09T05:50:27;100364.84;;;10.53;64.26
63739;BME280;68816;45.558;10.070;2023-04-09T05:52:53;100363.53;;;10.56;64.32
63739;BME280;68816;45.558;10.070;2023-04-09T05:55:18;100361.41;;;10.58;65.18
63739;BME280;68816;45.558;10.070;2023-04-09T05:57:44;100368.78;;;10.64;64.18
63739;BME280;68816;45.558;10.070;2023-04-09T06:00:10;100364.94;;;10.65;64.42
63739;BME280;68816;45.558;10.070;2023-04-09T06:02:35;100365.53;;;10.67;64.26
63739;BME280;68816;45.558;10.070;2023-04-09T06:05:01;100374.19;;;10.77;64.11
63739;BME280;68816;45.558;10.070;2023-04-09T06:07:26;100368.38;;;10.79;64.12
63739;BME280;68816;45.558;10.070;2023-04-09T06:09:53;100370.66;;;10.88;64.09
63739;BME280;68816;45.558;10.070;2023-04-09T06:12:19;100370.88;;;10.87;64.01
63739;BME280;68816;45.558;10.070;2023-04-09T06:14:47;100377.63;;;10.91;63.51
63739;BME280;68816;45.558;10.070;2023-04-09T06:17:12;100387.69;;;11.03;63.74
63739;BME280;68816;45.558;10.070;2023-04-09T06:19:38;100380.75;;;11.12;63.66
63739;BME280;68816;45.558;10.070;2023-04-09T06:22:04;100386.84;;;11.21;63.29
63739;BME280;68816;45.558;10.070;2023-04-09T06:24:33;100394.44;;;11.26;62.42
63739;BME280;68816;45.558;10.070;2023-04-09T06:26:59;100394.13;;;11.34;62.64
63739;BME280;68816;45.558;10.070;2023-04-09T06:29:24;100400.94;;;11.49;62.22
63739;BME280;68816;45.558;10.070;2023-04-09T06:31:50;100407.56;;;11.48;62.41
63739;BME280;68816;45.558;10.070;2023-04-09T06:34:15;100407.03;;;11.58;63.28
63739;BME280;68816;45.558;10.070;2023-04-09T06:36:41;100403.56;;;11.63;62.53
63739;BME280;68816;45.558;10.070;2023-04-09T06:39:08;100412.34;;;11.71;61.91
63739;BME280;68816;45.558;10.070;2023-04-09T06:41:33;100414.72;;;11.74;61.44
63739;BME280;68816;45.558;10.070;2023-04-09T06:43:58;100417.84;;;11.78;60.78
63739;BME280;68816;45.558;10.070;2023-04-09T06:46:24;100416.69;;;11.85;59.85
63739;BME280;68816;45.558;10.070;2023-04-09T06:48:50;100419.09;;;11.82;58.70
63739;BME280;68816;45.558;10.070;2023-04-09T06:51:15;100419.13;;;11.93;59.48
63739;BME280;68816;45.558;10.070;2023-04-09T06:53:41;100427.47;;;12.05;60.67
63739;BME280;68816;45.558;10.070;2023-04-09T06:56:06;100422.19;;;12.15;59.07
63739;BME280;68816;45.558;10.070;2023-04-09T06:58:32;100423.28;;;12.26;57.04
63739;BME280;68816;45.558;10.070;2023-04-09T07:00:58;100422.56;;;12.30;56.82
63739;BME280;68816;45.558;10.070;2023-04-09T07:03:23;100429.84;;;12.43;55.71
63739;BME280;68816;45.558;10.070;2023-04-09T07:05:49;100423.00;;;12.57;56.36
63739;BME280;68816;45.558;10.070;2023-04-09T07:08:16;100427.09;;;12.66;55.96
63739;BME280;68816;45.558;10.070;2023-04-09T07:10:41;100427.81;;;12.73;55.10
63739;BME280;68816;45.558;10.070;2023-04-09T07:13:07;100422.72;;;12.82;54.00
63739;BME280;68816;45.558;10.070;2023-04-09T07:15:32;100416.94;;;12.95;54.02
63739;BME280;68816;45.558;10.070;2023-04-09T07:17:58;100431.78;;;13.01;53.42
63739;BME280;68816;45.558;10.070;2023-04-09T07:20:24;100439.28;;;13.12;52.98
63739;BME280;68816;45.558;10.070;2023-04-09T07:22:50;100430.97;;;13.12;52.49
63739;BME280;68816;45.558;10.070;2023-04-09T07:25:15;100436.25;;;13.02;52.51
63739;BME280;68816;45.558;10.070;2023-04-09T07:27:41;100441.47;;;13.22;52.87
63739;BME280;68816;45.558;10.070;2023-04-09T07:30:09;100435.88;;;13.33;52.57
63739;BME280;68816;45.558;10.070;2023-04-09T07:32:35;100443.84;;;13.30;53.02
63739;BME280;68816;45.558;10.070;2023-04-09T07:35:03;100448.84;;;13.16;52.28
63739;BME280;68816;45.558;10.070;2023-04-09T07:37:29;100437.06;;;13.37;52.08
63739;BME280;68816;45.558;10.070;2023-04-09T07:39:55;100442.38;;;13.50;50.25
63739;BME280;68816;45.558;10.070;2023-04-09T07:42:20;100451.34;;;13.69;50.27
63739;BME280;68816;45.558;10.070;2023-04-09T07:44:46;100438.22;;;13.93;49.84
63739;BME280;68816;45.558;10.070;2023-04-09T07:47:12;100450.09;;;13.88;50.21
63739;BME280;68816;45.558;10.070;2023-04-09T07:49:37;100443.06;;;13.97;49.91
63739;BME280;68816;45.558;10.070;2023-04-09T07:52:03;100447.88;;;14.19;49.25
63739;BME280;68816;45.558;10.070;2023-04-09T07:54:29;100445.13;;;14.35;48.59
63739;BME280;68816;45.558;10.070;2023-04-09T07:56:58;100441.28;;;14.53;49.55
63739;BME280;68816;45.558;10.070;2023-04-09T07:59:24;100445.00;;;14.59;48.67
63739;BME280;68816;45.558;10.070;2023-04-09T08:01:50;100450.22;;;14.38;49.33
63739;BME280;68816;45.558;10.070;2023-04-09T08:04:16;100461.19;;;14.62;49.50
63739;BME280;68816;45.558;10.070;2023-04-09T08:06:41;100454.56;;;14.34;49.53
63739;BME280;68816;45.558;10.070;2023-04-09T08:09:07;100457.66;;;14.50;50.30
63739;BME280;68816;45.558;10.070;2023-04-09T08:11:32;100457.75;;;14.55;50.48
63739;BME280;68816;45.558;10.070;2023-04-09T08:13:58;100453.34;;;14.59;50.71
63739;BME280;68816;45.558;10.070;2023-04-09T08:16:27;100458.25;;;14.68;49.98
63739;BME280;68816;45.558;10.070;2023-04-09T08:18:54;100447.47;;;14.55;50.24
63739;BME280;68816;45.558;10.070;2023-04-09T08:21:20;100461.63;;;14.70;49.47
63739;BME280;68816;45.558;10.070;2023-04-09T08:23:45;100448.22;;;14.67;49.77
63739;BME280;68816;45.558;10.070;2023-04-09T08:26:11;100450.72;;;14.69;49.76
63739;BME280;68816;45.558;10.070;2023-04-09T08:28:36;100457.84;;;14.60;49.96
63739;BME280;68816;45.558;10.070;2023-04-09T08:31:01;100456.91;;;14.09;50.14
63739;BME280;68816;45.558;10.070;2023-04-09T08:33:27;100451.59;;;14.53;50.13
63739;BME280;68816;45.558;10.070;2023-04-09T08:35:53;100454.59;;;14.68;50.64
63739;BME280;68816;45.558;10.070;2023-04-09T08:38:18;100452.75;;;14.90;50.46
63739;BME280;68816;45.558;10.070;2023-04-09T08:40:44;100444.94;;;15.09;50.07
63739;BME280;68816;45.558;10.070;2023-04-09T08:43:13;100447.25;;;15.34;49.18
63739;BME280;68816;45.558;10.070;2023-04-09T08:45:40;100435.84;;;15.52;47.91
63739;BME280;68816;45.558;10.070;2023-04-09T08:48:08;100454.84;;;15.55;48.21
63739;BME280;68816;45.558;10.070;2023-04-09T08:50:33;100452.06;;;15.77;47.38
63739;BME280;68816;45.558;10.070;2023-04-09T08:53:02;100452.66;;;16.32;46.25
63739;BME280;68816;45.558;10.070;2023-04-09T08:55:29;100444.69;;;16.46;45.46
63739;BME280;68816;45.558;10.070;2023-04-09T08:57:55;100450.19;;;16.36;44.78
63739;BME280;68816;45.558;10.070;2023-04-09T09:00:22;100455.53;;;16.42;45.01
63739;BME280;68816;45.558;10.070;2023-04-09T09:03:02;100449.72;;;16.49;44.29
63739;BME280;68816;45.558;10.070;2023-04-09T09:05:43;100455.03;;;16.46;44.08
63739;BME280;68816;45.558;10.070;2023-04-09T09:08:11;100454.72;;;16.42;43.56
63739;BME280;68816;45.558;10.070;2023-04-09T09:10:41;100458.31;;;16.64;42.83
63739;BME280;68816;45.558;10.070;2023-04-09T09:13:17;100449.03;;;16.96;42.54
63739;BME280;68816;45.558;10.070;2023-04-09T09:15:42;100453.53;;;17.02;42.22
63739;BME280;68816;45.558;10.070;2023-04-09T09:18:08;100458.94;;;17.13;42.44
63739;BME280;68816;45.558;10.070;2023-04-09T09:20:35;100463.53;;;16.88;41.34
63739;BME280;68816;45.558;10.070;2023-04-09T09:23:02;100466.09;;;16.35;42.20
63739;BME280;68816;45.558;10.070;2023-04-09T09:25:27;100460.13;;;16.27;42.28
63739;BME280;68816;45.558;10.070;2023-04-09T09:28:06;100464.91;;;16.05;43.36
63739;BME280;68816;45.558;10.070;2023-04-09T09:30:31;100442.13;;;15.64;42.36
63739;BME280;68816;45.558;10.070;2023-04-09T09:33:09;100454.97;;;15.65;43.43
63739;BME280;68816;45.558;10.070;2023-04-09T09:35:50;100451.59;;;16.38;42.77
63739;BME280;68816;45.558;10.070;2023-04-09T09:38:18;100447.31;;;16.31;41.67
63739;BME280;68816;45.558;10.070;2023-04-09T09:40:44;100457.72;;;16.35;41.50
63739;BME280;68816;45.558;10.070;2023-04-09T09:43:10;100453.72;;;16.26;41.42
63739;BME280;68816;45.558;10.070;2023-04-09T09:45:36;100434.63;;;16.45;41.88
63739;BME280;68816;45.558;10.070;2023-04-09T09:48:03;100436.78;;;17.02;42.30
63739;BME280;68816;45.558;10.070;2023-04-09T09:50:30;100432.63;;;17.04;41.25
63739;BME280;68816;45.558;10.070;2023-04-09T09:53:04;100446.00;;;17.02;40.60
63739;BME280;68816;45.558;10.070;2023-04-09T09:55:31;100438.47;;;17.03;41.50
63739;BME280;68816;45.558;10.070;2023-04-09T09:58:00;100438.28;;;17.19;41.27
63739;BME280;68816;45.558;10.070;2023-04-09T10:00:28;100440.13;;;16.99;40.56
63739;BME280;68816;45.558;10.070;2023-04-09T10:03:03;100429.28;;;17.07;40.07
63739;BME280;68816;45.558;10.070;2023-04-09T10:05:32;100434.00;;;17.54;39.41
63739;BME280;68816;45.558;10.070;2023-04-09T10:08:01;100434.41;;;17.78;38.72
63739;BME280;68816;45.558;10.070;2023-04-09T10:10:27;100431.16;;;18.06;38.42
63739;BME280;68816;45.558;10.070;2023-04-09T10:12:53;100429.41;;;17.80;38.08
63739;BME280;68816;45.558;10.070;2023-04-09T10:15:20;100438.38;;;17.87;39.04
63739;BME280;68816;45.558;10.070;2023-04-09T10:17:46;100441.44;;;17.85;38.08
63739;BME280;68816;45.558;10.070;2023-04-09T10:20:38;100426.44;;;18.17;38.26
63739;BME280;68816;45.558;10.070;2023-04-09T10:23:12;100421.94;;;18.11;38.06
63739;BME280;68816;45.558;10.070;2023-04-09T10:25:40;100429.16;;;17.86;38.87
63739;BME280;68816;45.558;10.070;2023-04-09T10:28:17;100429.63;;;17.68;38.41
63739;BME280;68816;45.558;10.070;2023-04-09T10:30:42;100435.09;;;17.48;38.73
63739;BME280;68816;45.558;10.070;2023-04-09T10:33:14;100431.53;;;17.57;40.68
63739;BME280;68816;45.558;10.070;2023-04-09T10:35:41;100420.88;;;17.59;39.17
63739;BME280;68816;45.558;10.070;2023-04-09T10:38:15;100430.25;;;17.85;38.89
63739;BME280;68816;45.558;10.070;2023-04-09T10:40:46;100419.66;;;17.97;38.01
63739;BME280;68816;45.558;10.070;2023-04-09T10:43:13;100421.75;;;17.60;37.55
63739;BME280;68816;45.558;10.070;2023-04-09T10:45:44;100426.34;;;17.29;37.36
63739;BME280;68816;45.558;10.070;2023-04-09T10:48:13;100413.00;;;17.41;38.49
63739;BME280;68816;45.558;10.070;2023-04-09T10:50:42;100402.69;;;17.52;38.19
63739;BME280;68816;45.558;10.070;2023-04-09T10:53:20;100415.28;;;17.54;39.00
63739;BME280;68816;45.558;10.070;2023-04-09T10:55:50;100416.19;;;17.13;39.07
63739;BME280;68816;45.558;10.070;2023-04-09T10:58:16;100401.00;;;16.99;39.53
63739;BME280;68816;45.558;10.070;2023-04-09T11:00:43;100421.28;;;17.21;39.24
63739;BME280;68816;45.558;10.070;2023-04-09T11:03:18;100412.88;;;17.21;38.63
63739;BME280;68816;45.558;10.070;2023-04-09T11:05:46;100405.13;;;17.33;38.54
63739;BME280;68816;45.558;10.070;2023-04-09T11:08:15;100398.63;;;16.75;38.84
63739;BME280;68816;45.558;10.070;2023-04-09T11:10:42;100397.34;;;17.45;38.34
63739;BME280;68816;45.558;10.070;2023-04-09T11:13:16;100392.75;;;17.76;37.58
63739;BME280;68816;45.558;10.070;2023-04-09T11:15:42;100385.25;;;17.97;38.88
63739;BME280;68816;45.558;10.070;2023-04-09T11:18:13;100389.72;;;17.88;37.44
63739;BME280;68816;45.558;10.070;2023-04-09T11:20:39;100387.41;;;17.64;38.24
63739;BME280;68816;45.558;10.070;2023-04-09T11:23:05;100380.19;;;17.89;37.44
63739;BME280;68816;45.558;10.070;2023-04-09T11:25:32;100377.69;;;17.92;37.01
63739;BME280;68816;45.558;10.070;2023-04-09T11:27:58;100379.31;;;17.78;37.41
63739;BME280;68816;45.558;10.070;2023-04-09T11:30:24;100377.59;;;17.10;37.31
63739;BME280;68816;45.558;10.070;2023-04-09T11:32:50;100382.69;;;17.18;37.97
63739;BME280;68816;45.558;10.070;2023-04-09T11:35:18;100382.69;;;17.80;37.11
63739;BME280;68816;45.558;10.070;2023-04-09T11:37:44;100374.09;;;18.22;35.99
63739;BME280;68816;45.558;10.070;2023-04-09T11:40:28;100367.00;;;19.11;36.81
63739;BME280;68816;45.558;10.070;2023-04-09T11:42:55;100362.16;;;19.47;34.76
63739;BME280;68816;45.558;10.070;2023-04-09T11:45:26;100364.25;;;19.75;33.60
63739;BME280;68816;45.558;10.070;2023-04-09T11:47:52;100358.47;;;19.51;33.56
63739;BME280;68816;45.558;10.070;2023-04-09T11:50:18;100362.94;;;19.62;32.77
63739;BME280;68816;45.558;10.070;2023-04-09T11:52:44;100356.81;;;19.55;32.24
63739;BME280;68816;45.558;10.070;2023-04-09T11:55:10;100358.44;;;18.67;33.58
63739;BME280;68816;45.558;10.070;2023-04-09T12:00:10;100360.13;;;18.63;34.24
63739;BME280;68816;45.558;10.070;2023-04-09T12:02:41;100351.13;;;18.66;34.02
63739;BME280;68816;45.558;10.070;2023-04-09T12:05:11;100355.06;;;18.55;34.91
63739;BME280;68816;45.558;10.070;2023-04-09T12:07:38;100347.44;;;19.01;34.51
63739;BME280;68816;45.558;10.070;2023-04-09T12:10:08;100342.56;;;19.32;32.11
63739;BME280;68816;45.558;10.070;2023-04-09T12:12:42;100347.25;;;19.56;31.57
63739;BME280;68816;45.558;10.070;2023-04-09T12:15:21;100340.88;;;19.31;32.26
63739;BME280;68816;45.558;10.070;2023-04-09T12:17:57;100338.44;;;18.99;32.73
63739;BME280;68816;45.558;10.070;2023-04-09T12:22:55;100338.81;;;18.31;34.25
63739;BME280;68816;45.558;10.070;2023-04-09T12:25:20;100340.63;;;19.17;33.47
63739;BME280;68816;45.558;10.070;2023-04-09T12:27:46;100329.56;;;19.61;32.40
63739;BME280;68816;45.558;10.070;2023-04-09T12:30:11;100332.06;;;20.06;30.60
63739;BME280;68816;45.558;10.070;2023-04-09T12:32:37;100332.69;;;20.37;31.21
63739;BME280;68816;45.558;10.070;2023-04-09T12:35:03;100336.06;;;19.95;30.60
63739;BME280;68816;45.558;10.070;2023-04-09T12:37:29;100330.91;;;19.68;31.70
63739;BME280;68816;45.558;10.070;2023-04-09T12:39:54;100329.66;;;19.90;31.85
63739;BME280;68816;45.558;10.070;2023-04-09T12:42:20;100332.56;;;20.14;30.98
63739;BME280;68816;45.558;10.070;2023-04-09T12:44:46;100323.63;;;20.74;31.81
63739;BME280;68816;45.558;10.070;2023-04-09T12:47:11;100332.28;;;21.07;30.29
63739;BME280;68816;45.558;10.070;2023-04-09T12:49:37;100322.31;;;21.43;29.94
63739;BME280;68816;45.558;10.070;2023-04-09T12:52:03;100326.84;;;21.39;28.17
63739;BME280;68816;45.558;10.070;2023-04-09T12:54:28;100324.28;;;21.43;28.74
63739;BME280;68816;45.558;10.070;2023-04-09T12:56:54;100319.25;;;21.40;28.46
63739;BME280;68816;45.558;10.070;2023-04-09T12:59:19;100315.84;;;21.43;28.42